Time;durP1;ratioP1;P1;durP2;ratioP2;P2;SDS_P1;SDS_P2;PMS_P1;PMS_P2;Temp;Humidity;BMP_temperature;BMP_pressure;BME280_temperature;BME280_humidity;BME280_pressure;Samples;Min_cycle;Max_cycle;Signal;HPM_P1;HPM_P2
2021/12/14 00:03:03;;;;;;;143.50;78.40;;;;;;;-1.30;84.01;100551.55;434276;1306;143616;-61
2021/12/14 00:13:20;;;;;;;143.70;80.70;;;;;;;-1.26;84.11;100554.13;435691;1310;143128;-61
2021/12/14 00:34:00;;;;;;;137.90;77.20;;;;;;;-1.09;84.33;100549.65;430750;1310;143846;-62
2021/12/14 00:44:08;;;;;;;125.90;73.20;;;;;;;-1.08;84.11;100551.37;432245;1310;141733;-62
2021/12/14 00:54:16;;;;;;;133.50;76.40;;;;;;;-1.07;84.30;100550.85;433689;1309;142429;-62
2021/12/14 01:04:27;;;;;;;128.60;74.20;;;;;;;-1.00;84.57;100550.50;435520;1309;142409;-63
2021/12/14 01:14:42;;;;;;;131.70;73.40;;;;;;;-1.01;84.28;100550.68;435545;1309;142705;-63
2021/12/14 01:25:06;;;;;;;130.20;72.10;;;;;;;-1.06;84.45;100546.73;433053;1312;142640;-63
2021/12/14 01:35:14;;;;;;;133.00;73.10;;;;;;;-1.08;84.81;100541.75;430735;1306;142012;-62
2021/12/14 01:45:24;;;;;;;136.60;75.20;;;;;;;-1.05;84.85;100543.12;427917;1310;142523;-63
2021/12/14 01:55:34;;;;;;;126.50;72.80;;;;;;;-1.07;84.86;100537.79;434091;1310;201050;-63
2021/12/14 02:05:44;;;;;;;129.90;76.00;;;;;;;-1.05;85.12;100551.20;435670;1310;143190;-62
2021/12/14 02:15:50;;;;;;;127.90;72.90;;;;;;;-1.01;85.04;100551.88;432996;1307;141957;-63
2021/12/14 02:25:59;;;;;;;136.20;73.70;;;;;;;-0.94;85.14;100556.51;435025;1307;141621;-62
2021/12/14 02:36:08;;;;;;;130.10;69.30;;;;;;;-0.94;85.30;100544.31;432228;1310;145536;-62
2021/12/14 02:46:19;;;;;;;130.20;70.60;;;;;;;-0.96;85.15;100537.27;422216;1311;142306;-63
2021/12/14 02:56:29;;;;;;;131.60;71.30;;;;;;;-0.99;85.69;100540.52;432727;1310;141956;-62
2021/12/14 03:06:46;;;;;;;136.90;73.30;;;;;;;-1.02;85.81;100532.11;420544;1312;142684;-61
2021/12/14 03:16:50;;;;;;;;;;;;;;;-1.08;85.68;100521.98;434722;1312;142581;-62
2021/12/14 03:26:57;;;;;;;112.70;64.40;;;;;;;-1.06;85.86;100524.22;432260;1312;138734;-61
2021/12/14 03:37:08;;;;;;;132.70;74.60;;;;;;;-1.04;86.04;100518.55;420498;1309;200305;-62
2021/12/14 03:47:17;;;;;;;127.30;71.00;;;;;;;-1.01;86.04;100520.95;434123;1311;142197;-63
2021/12/14 03:57:24;;;;;;;112.60;63.30;;;;;;;-0.96;86.07;100516.47;432924;1310;141649;-62
2021/12/14 04:07:32;;;;;;;128.70;65.70;;;;;;;-0.90;85.74;100512.16;422810;1310;142158;-63
2021/12/14 04:17:39;;;;;;;120.90;65.90;;;;;;;-0.83;86.10;100512.32;429887;1312;143372;-63
2021/12/14 04:27:45;;;;;;;121.50;64.70;;;;;;;-0.79;85.94;100512.65;419989;1312;142350;-63
2021/12/14 04:37:55;;;;;;;123.90;71.20;;;;;;;-0.76;86.05;100506.98;423271;1312;142775;-63
2021/12/14 04:58:33;;;;;;;125.50;70.70;;;;;;;-0.73;85.83;100501.98;433415;1312;142569;-63
2021/12/14 05:19:07;;;;;;;135.20;68.30;;;;;;;-0.78;85.98;100508.17;433690;1312;141913;-63
2021/12/14 05:29:13;;;;;;;141.70;73.10;;;;;;;-0.78;86.17;100509.55;425696;1312;142824;-62
2021/12/14 05:39:40;;;;;;;145.00;76.00;;;;;;;-0.74;86.04;100512.30;432635;1312;142825;-62
2021/12/14 05:49:49;;;;;;;142.30;74.90;;;;;;;-0.74;86.33;100506.80;429209;1312;143385;-62
2021/12/14 05:59:56;;;;;;;158.00;76.20;;;;;;;-0.74;85.91;100496.98;418505;1311;152362;-62
2021/12/14 06:10:02;;;;;;;167.50;79.60;;;;;;;-0.85;86.26;100486.52;418696;1312;142588;-63
2021/12/14 06:20:12;;;;;;;168.70;84.50;;;;;;;-0.90;86.17;100487.57;432316;1312;143001;-63
2021/12/14 06:30:21;;;;;;;156.30;77.50;;;;;;;-1.00;86.28;100482.95;435003;1309;143037;-63
2021/12/14 06:40:30;;;;;;;152.00;76.20;;;;;;;-0.95;86.34;100473.15;435683;1309;141664;-63
2021/12/14 06:50:42;;;;;;;147.60;78.00;;;;;;;-0.84;86.26;100481.20;435591;1309;142958;-64
2021/12/14 07:00:50;;;;;;;150.50;79.20;;;;;;;-0.70;86.26;100488.90;433637;1313;142044;-62
2021/12/14 07:10:57;;;;;;;169.60;83.80;;;;;;;-0.66;86.23;100473.06;435810;1309;142575;-63
2021/12/14 07:21:04;;;;;;;178.10;85.10;;;;;;;-0.55;86.46;100486.09;429148;1310;143244;-62
2021/12/14 07:31:16;;;;;;;159.80;80.20;;;;;;;-0.40;86.24;100485.52;430388;1312;142563;-67
2021/12/14 07:41:30;;;;;;;142.60;79.30;;;;;;;-0.18;86.39;100480.92;432009;1310;142605;-59
2021/12/14 07:51:40;;;;;;;148.20;79.80;;;;;;;0.07;86.57;100480.45;430917;1307;142304;-63
2021/12/14 08:01:48;;;;;;;143.30;77.80;;;;;;;0.32;86.36;100479.92;435157;1312;142083;-63
2021/12/14 08:11:55;;;;;;;130.60;68.70;;;;;;;0.59;86.36;100477.48;434795;1310;143077;-64
2021/12/14 08:22:03;;;;;;;126.70;71.80;;;;;;;0.76;86.09;100470.61;434652;1313;143259;-63
2021/12/14 08:32:20;;;;;;;122.90;66.40;;;;;;;1.06;85.98;100475.99;434722;1312;141567;-61
2021/12/14 08:42:34;;;;;;;124.00;71.00;;;;;;;1.43;85.78;100479.39;430064;1312;141051;-60
2021/12/14 08:52:42;;;;;;;107.20;62.20;;;;;;;1.74;85.35;100474.52;434829;1312;142535;-58
2021/12/14 09:02:52;;;;;;;106.40;59.00;;;;;;;1.99;85.08;100477.11;433609;1310;141384;-59
2021/12/14 09:13:06;;;;;;;100.00;59.80;;;;;;;2.12;84.76;100471.73;422551;1312;141629;-59
2021/12/14 09:23:15;;;;;;;99.80;61.50;;;;;;;2.30;84.75;100467.83;428241;1310;142725;-59
2021/12/14 09:33:21;;;;;;;90.10;54.70;;;;;;;2.46;84.33;100450.64;428433;1309;146733;-55
2021/12/14 09:43:28;;;;;;;92.10;52.40;;;;;;;2.55;84.13;100450.49;423060;1310;142170;-54
2021/12/14 09:53:36;;;;;;;82.90;53.30;;;;;;;2.75;83.99;100441.34;419289;1307;142755;-59
2021/12/14 10:03:44;;;;;;;81.30;51.00;;;;;;;2.83;83.67;100425.80;429432;1309;141814;-59
2021/12/14 10:13:54;;;;;;;76.20;47.10;;;;;;;2.85;83.63;100415.23;433667;1314;141244;-59
2021/12/14 10:24:03;;;;;;;74.20;44.10;;;;;;;2.93;83.79;100407.63;433472;1311;141579;-65
2021/12/14 10:34:13;;;;;;;80.00;48.10;;;;;;;3.04;83.25;100404.98;435514;1313;142372;-66
2021/12/14 10:44:21;;;;;;;81.90;49.90;;;;;;;3.23;83.36;100397.85;433330;1313;143753;-59
2021/12/14 10:54:29;;;;;;;69.20;41.50;;;;;;;3.30;83.35;100397.89;421500;1315;192775;-59
2021/12/14 11:04:42;;;;;;;67.60;40.50;;;;;;;3.23;83.23;100395.62;432362;1313;143128;-64
2021/12/14 11:14:51;;;;;;;69.70;39.30;;;;;;;3.27;83.65;100390.18;433925;1312;141101;-61
2021/12/14 11:25:00;;;;;;;68.50;39.40;;;;;;;3.18;83.63;100388.98;434440;1310;142534;-60
2021/12/14 11:35:20;;;;;;;64.40;37.70;;;;;;;3.06;83.62;100380.39;434836;1312;206902;-59
2021/12/14 11:45:27;;;;;;;65.60;38.30;;;;;;;2.97;83.59;100383.68;434860;1310;142359;-59
2021/12/14 11:55:39;;;;;;;87.50;52.40;;;;;;;2.84;83.97;100374.09;435568;1313;141120;-58
2021/12/14 12:06:00;;;;;;;74.40;41.50;;;;;;;2.75;84.25;100371.46;432871;1310;141581;-61
2021/12/14 12:37:57;;;;;;;71.10;42.20;;;;;;;2.63;84.56;100357.20;427618;1320;141904;-62
2021/12/14 12:48:04;;;;;;;63.00;37.00;;;;;;;2.66;84.56;100340.70;420650;1319;142359;-62
2021/12/14 12:58:12;;;;;;;76.10;42.50;;;;;;;2.49;84.65;100326.33;432230;1319;141675;-60
2021/12/14 13:08:24;;;;;;;80.50;47.50;;;;;;;2.38;84.82;100326.88;432220;1321;142678;-62
2021/12/14 13:18:48;;;;;;;83.80;49.20;;;;;;;2.24;84.90;100320.91;431916;1318;142401;-59
2021/12/14 13:28:58;;;;;;;84.50;47.40;;;;;;;2.20;85.19;100332.73;431204;1319;141589;-60
2021/12/14 13:39:06;;;;;;;86.10;49.80;;;;;;;2.12;85.08;100338.39;432006;1319;142546;-58
2021/12/14 13:49:12;;;;;;;89.40;50.80;;;;;;;2.08;85.30;100341.20;432927;1319;141495;-61
2021/12/14 13:59:19;;;;;;;86.20;51.80;;;;;;;2.03;85.44;100345.29;431093;1320;142109;-63
2021/12/14 14:09:27;;;;;;;88.00;51.60;;;;;;;2.01;85.40;100355.50;431720;1319;184851;-62
2021/12/14 14:19:37;;;;;;;76.90;47.10;;;;;;;1.93;85.47;100356.65;431109;1320;142566;-60
2021/12/14 14:29:46;;;;;;;88.00;54.20;;;;;;;1.90;85.60;100348.25;429530;1324;143916;-61
2021/12/14 14:39:55;;;;;;;93.40;57.80;;;;;;;1.83;85.75;100345.59;432734;1319;143227;-61
2021/12/14 14:50:17;;;;;;;94.20;58.40;;;;;;;1.87;85.92;100351.23;432468;1318;142001;-59
2021/12/14 15:00:32;;;;;;;99.80;60.30;;;;;;;1.78;85.85;100357.23;419814;1319;183829;-69
2021/12/14 15:10:42;;;;;;;77.10;48.10;;;;;;;1.73;85.95;100359.38;431570;1320;141512;-62
2021/12/14 15:20:48;;;;;;;87.90;53.40;;;;;;;1.71;86.06;100361.14;432625;1320;143504;-61
2021/12/14 15:30:56;;;;;;;79.00;45.70;;;;;;;1.70;86.21;100369.09;432624;1318;142140;-62
2021/12/14 15:41:11;;;;;;;73.00;47.40;;;;;;;1.69;86.27;100360.84;432179;1318;142766;-61
2021/12/14 15:51:27;;;;;;;84.00;51.40;;;;;;;1.65;86.40;100368.81;431783;1319;142115;-62
2021/12/14 16:01:36;;;;;;;82.90;51.50;;;;;;;1.61;86.42;100381.47;431167;1318;141933;-61
2021/12/14 16:11:48;;;;;;;81.70;51.40;;;;;;;1.61;86.51;100372.16;426733;1319;142002;-62
2021/12/14 16:22:03;;;;;;;105.70;55.50;;;;;;;1.57;86.58;100361.34;429889;1319;144747;-62
2021/12/14 16:32:18;;;;;;;99.20;53.40;;;;;;;1.55;86.89;100362.91;429940;1318;141816;-62
2021/12/14 16:42:26;;;;;;;89.00;49.80;;;;;;;1.55;86.96;100354.63;431860;1318;142009;-61
2021/12/14 16:52:33;;;;;;;;;;;;;;;1.53;87.04;100345.16;432519;1315;144021;-62
2021/12/14 17:02:38;;;;;;;;;;;;;;;1.51;87.10;100344.34;429811;1316;131850;-61
2021/12/14 17:12:46;;;;;;;85.30;53.10;;;;;;;1.44;87.28;100368.44;423740;1318;127757;-63
2021/12/14 17:22:54;;;;;;;100.60;58.20;;;;;;;1.38;87.53;100376.61;419796;1318;142133;-62
2021/12/14 17:33:00;;;;;;;109.60;60.60;;;;;;;1.33;87.63;100385.84;431961;1318;143011;-61
2021/12/14 17:43:13;;;;;;;101.60;55.40;;;;;;;1.33;87.84;100381.02;432794;1319;142083;-62
2021/12/14 17:53:23;;;;;;;122.40;71.70;;;;;;;1.38;87.86;100374.55;432757;1319;147199;-63
2021/12/14 18:03:32;;;;;;;115.10;64.30;;;;;;;1.39;87.81;100374.52;430734;1317;143448;-62
2021/12/14 18:13:42;;;;;;;126.90;68.30;;;;;;;1.39;87.78;100390.23;432658;1315;141223;-63
2021/12/14 18:23:52;;;;;;;126.40;70.40;;;;;;;1.40;87.89;100397.13;421030;1318;141774;-61
2021/12/14 18:34:02;;;;;;;114.20;68.30;;;;;;;1.36;87.91;100405.96;432163;1315;143367;-59
2021/12/14 18:44:19;;;;;;;95.60;55.80;;;;;;;1.37;88.15;100407.34;431086;1316;142865;-71
2021/12/14 18:54:27;;;;;;;99.90;52.20;;;;;;;1.37;88.13;100396.13;429983;1320;142254;-64
2021/12/14 19:04:41;;;;;;;84.50;50.80;;;;;;;1.39;88.12;100393.52;432728;1317;142962;-66
2021/12/14 19:14:48;;;;;;;85.10;52.80;;;;;;;1.37;88.33;100391.29;432089;1319;142624;-67
2021/12/14 19:25:02;;;;;;;73.50;41.90;;;;;;;1.40;88.45;100425.23;432771;1318;142387;-67
2021/12/14 19:35:12;;;;;;;78.80;42.40;;;;;;;1.40;88.35;100425.59;432662;1317;155776;-67
2021/12/14 19:45:20;;;;;;;73.50;44.20;;;;;;;1.36;88.46;100437.54;430371;1316;143215;-61
2021/12/14 19:55:25;;;;;;;;;;;;;;;1.40;88.52;100439.73;432727;1314;141583;-61
2021/12/14 20:05:35;;;;;;;74.90;48.20;;;;;;;1.41;88.50;100431.10;420669;1318;128494;-61
2021/12/14 20:15:44;;;;;;;78.20;45.20;;;;;;;1.47;88.67;100428.79;426394;1318;146148;-60
2021/12/14 20:25:56;;;;;;;73.30;44.70;;;;;;;1.45;88.66;100437.95;432529;1318;142801;-60
2021/12/14 20:36:07;;;;;;;76.10;40.50;;;;;;;1.45;88.76;100436.91;421899;1318;142487;-60
2021/12/14 20:46:14;;;;;;;69.00;37.70;;;;;;;1.43;88.63;100453.33;430450;1318;143645;-60
2021/12/14 20:56:21;;;;;;;69.10;41.10;;;;;;;1.48;88.94;100454.66;432639;1315;142207;-61
2021/12/14 21:06:31;;;;;;;73.70;42.20;;;;;;;1.50;88.67;100450.32;432149;1318;142424;-59
2021/12/14 21:16:42;;;;;;;73.20;41.80;;;;;;;1.54;88.82;100458.20;432774;1318;142927;-61
2021/12/14 21:26:50;;;;;;;65.10;38.90;;;;;;;1.55;88.71;100450.94;432485;1317;143007;-61
2021/12/14 21:36:59;;;;;;;89.40;48.00;;;;;;;1.54;88.68;100443.88;432739;1318;143600;-59
2021/12/14 21:47:11;;;;;;;88.20;46.90;;;;;;;1.52;88.69;100451.33;432853;1318;142478;-61
2021/12/14 21:57:20;;;;;;;78.00;40.50;;;;;;;1.53;88.85;100454.08;430335;1318;142796;-61
2021/12/14 22:07:26;;;;;;;76.80;41.70;;;;;;;1.58;88.96;100465.76;430233;1318;142440;-60
2021/12/14 22:17:35;;;;;;;73.30;42.50;;;;;;;1.60;88.84;100472.80;425694;1315;143203;-61
2021/12/14 22:27:42;;;;;;;67.70;40.50;;;;;;;1.63;88.92;100480.36;416268;1318;146558;-60
2021/12/14 22:37:48;;;;;;;68.10;37.80;;;;;;;1.64;88.99;100480.34;419816;1318;143143;-59
2021/12/14 22:47:55;;;;;;;67.30;37.90;;;;;;;1.55;88.79;100476.82;424903;1317;142903;-60
2021/12/14 22:58:01;;;;;;;66.40;37.50;;;;;;;1.55;88.95;100478.55;432309;1317;141790;-59
2021/12/14 23:08:10;;;;;;;56.60;35.60;;;;;;;1.57;89.09;100485.44;432858;1318;143221;-58
2021/12/14 23:18:27;;;;;;;60.60;36.70;;;;;;;1.60;89.04;100490.05;432147;1318;145041;-59
2021/12/14 23:28:32;;;;;;;;;;;;;;;1.61;89.30;100481.08;431913;1318;142570;-59
2021/12/14 23:38:39;;;;;;;65.60;38.50;;;;;;;1.65;89.28;100478.09;431368;1316;129005;-59
2021/12/14 23:48:46;;;;;;;63.80;38.40;;;;;;;1.66;89.27;100469.60;432052;1316;142281;-59
2021/12/14 23:58:54;;;;;;;66.50;38.10;;;;;;;1.69;89.16;100456.45;432874;1318;142390;-58
